Time;durP1;ratioP1;P1;durP2;ratioP2;P2;SDS_P1;SDS_P2;PMS_P1;PMS_P2;Temp;Humidity;BMP_temperature;BMP_pressure;BME280_temperature;BME280_humidity;BME280_pressure;Samples;Min_cycle;Max_cycle;Signal;HPM_P1;HPM_P2
2021/06/04 00:04:41;;;;;;;10.43;8.70;;;;;;;13.27;100.00;101342.05;256907;1104;115038;-70
2021/06/04 00:09:44;;;;;;;13.90;8.80;;;;;;;13.30;100.00;101339.27;257304;1104;114966;-70
2021/06/04 00:14:46;;;;;;;9.13;8.23;;;;;;;13.25;100.00;101344.78;256916;1104;115008;-67
2021/06/04 00:19:49;;;;;;;9.68;8.50;;;;;;;13.10;100.00;101354.25;256809;1104;114657;-69
2021/06/04 00:24:54;;;;;;;9.27;8.37;;;;;;;13.00;100.00;101347.45;256850;1104;114585;-70
2021/06/04 00:29:58;;;;;;;9.80;8.80;;;;;;;12.82;100.00;101339.16;257059;1096;114743;-70
2021/06/04 00:35:01;;;;;;;8.88;7.98;;;;;;;12.79;100.00;101347.27;257033;1098;114885;-69
2021/06/04 00:40:19;;;;;;;8.33;7.53;;;;;;;12.79;100.00;101344.59;257528;1104;114686;-69
2021/06/04 00:45:29;;;;;;;7.97;7.13;;;;;;;12.67;100.00;101355.72;257798;1099;114709;-69
2021/06/04 00:50:42;;;;;;;8.95;8.05;;;;;;;12.47;100.00;101341.22;256429;1104;114548;-70
2021/06/04 00:55:44;;;;;;;12.28;9.08;;;;;;;12.53;100.00;101342.79;256718;1098;115016;-68
2021/06/04 01:00:50;;;;;;;8.48;7.33;;;;;;;12.41;100.00;101349.41;257363;1104;115006;-69
2021/06/04 01:06:06;;;;;;;10.00;8.20;;;;;;;12.46;100.00;101347.48;257404;1099;114599;-67
2021/06/04 01:11:35;;;;;;;8.60;7.80;;;;;;;12.53;100.00;101327.64;257330;1104;115150;-69
2021/06/04 01:17:12;;;;;;;7.57;6.97;;;;;;;12.32;100.00;101333.69;256670;1104;114886;-71
2021/06/04 01:22:40;;;;;;;7.33;6.70;;;;;;;12.37;100.00;101337.94;256771;1104;114879;-68
2021/06/04 01:27:48;;;;;;;10.68;9.58;;;;;;;12.31;100.00;101338.14;260088;1096;114790;-70
2021/06/04 01:32:58;;;;;;;8.30;7.30;;;;;;;12.34;100.00;101331.81;261155;1104;114924;-69
2021/06/04 01:38:01;;;;;;;9.18;6.95;;;;;;;12.31;100.00;101332.80;257204;1104;114613;-71
2021/06/04 01:43:13;;;;;;;7.70;6.95;;;;;;;12.20;100.00;101330.47;256664;1104;114713;-68
2021/06/04 01:48:25;;;;;;;7.98;7.28;;;;;;;12.06;100.00;101338.04;257650;1098;114874;-67
2021/06/04 01:53:44;;;;;;;9.08;8.00;;;;;;;12.06;100.00;101330.02;257800;1104;115504;-71
2021/06/04 01:58:52;;;;;;;10.83;8.15;;;;;;;12.04;100.00;101339.91;256356;1096;114992;-67
2021/06/04 02:04:01;;;;;;;11.65;8.78;;;;;;;11.87;100.00;101340.39;257206;1097;115136;-71
2021/06/04 02:09:09;;;;;;;9.65;8.25;;;;;;;11.90;100.00;101338.51;256865;1096;115016;-68
2021/06/04 02:14:17;;;;;;;13.63;7.77;;;;;;;11.92;100.00;101344.66;256871;1096;114535;-68
2021/06/04 02:19:33;;;;;;;7.95;7.25;;;;;;;11.69;100.00;101341.81;257582;1098;115166;-72
2021/06/04 02:24:44;;;;;;;10.63;8.70;;;;;;;11.42;100.00;101341.67;257790;1104;114554;-66
2021/06/04 02:29:57;;;;;;;11.55;10.18;;;;;;;11.31;100.00;101339.34;257402;1097;115705;-69
2021/06/04 02:35:16;;;;;;;12.90;10.70;;;;;;;11.49;100.00;101345.92;256197;1098;115785;-70
2021/06/04 02:40:29;;;;;;;14.73;11.43;;;;;;;11.39;100.00;101347.12;257792;1099;115204;-70
2021/06/04 02:45:39;;;;;;;10.53;9.43;;;;;;;11.50;100.00;101345.00;257470;1104;115408;-70
2021/06/04 02:50:58;;;;;;;9.73;8.83;;;;;;;11.55;100.00;101340.43;257499;1104;115093;-71
2021/06/04 02:56:12;;;;;;;14.35;9.83;;;;;;;11.46;100.00;101338.02;257180;1104;114924;-70
2021/06/04 03:01:15;;;;;;;10.33;8.73;;;;;;;11.37;100.00;101338.27;257919;1104;114747;-68
2021/06/04 03:06:23;;;;;;;10.13;9.08;;;;;;;11.25;100.00;101339.48;257052;1098;114801;-68
2021/06/04 03:11:32;;;;;;;10.33;9.20;;;;;;;11.35;100.00;101340.13;257392;1104;115379;-72
2021/06/04 03:16:35;;;;;;;10.73;9.63;;;;;;;11.50;100.00;101345.00;257236;1104;115047;-68
2021/06/04 03:21:46;;;;;;;13.48;10.85;;;;;;;11.52;100.00;101343.17;256546;1104;115195;-68
2021/06/04 03:26:48;;;;;;;30.03;22.78;;;;;;;11.48;100.00;101345.06;257249;1096;115195;-68
2021/06/04 03:32:06;;;;;;;46.73;33.47;;;;;;;11.48;100.00;101341.53;257110;1104;115278;-70
2021/06/04 03:37:10;;;;;;;60.73;41.35;;;;;;;11.54;100.00;101344.02;256322;1104;115054;-71
2021/06/04 03:42:21;;;;;;;62.33;42.03;;;;;;;11.59;100.00;101347.42;256816;1104;115461;-67
2021/06/04 03:47:24;;;;;;;77.28;53.15;;;;;;;11.70;100.00;101351.59;256907;1099;115266;-68
2021/06/04 03:52:26;;;;;;;80.75;55.53;;;;;;;11.92;100.00;101352.67;256331;1105;115150;-71
2021/06/04 03:57:34;;;;;;;75.03;51.93;;;;;;;12.09;100.00;101343.30;256154;1104;114962;-67
2021/06/04 04:02:37;;;;;;;58.95;43.68;;;;;;;12.21;100.00;101348.26;256157;1104;115238;-67
2021/06/04 04:07:39;;;;;;;45.33;33.20;;;;;;;12.33;100.00;101346.14;256451;1100;115008;-68
2021/06/04 04:12:42;;;;;;;33.88;24.70;;;;;;;12.54;100.00;101350.79;256559;1104;115408;-70
2021/06/04 04:17:47;;;;;;;27.35;20.25;;;;;;;12.64;100.00;101346.00;256317;1104;115328;-60
2021/06/04 04:22:53;;;;;;;33.75;24.45;;;;;;;12.87;100.00;101347.00;256625;1104;114727;-69
2021/06/04 04:27:55;;;;;;;40.65;29.73;;;;;;;13.02;100.00;101345.61;256621;1098;113906;-71
2021/06/04 04:32:58;;;;;;;39.33;28.07;;;;;;;13.20;100.00;101344.95;256216;1104;115219;-63
2021/06/04 04:38:00;;;;;;;33.50;24.00;;;;;;;13.50;100.00;101347.47;256508;1100;115385;-69
2021/06/04 04:43:04;;;;;;;29.65;22.15;;;;;;;13.73;100.00;101337.70;256263;1100;114927;-70
2021/06/04 04:48:07;;;;;;;23.65;18.50;;;;;;;13.95;100.00;101337.73;256421;1098;115006;-70
2021/06/04 04:53:10;;;;;;;25.65;18.48;;;;;;;14.12;100.00;101338.89;256803;1104;114982;-69
2021/06/04 04:58:13;;;;;;;20.00;16.75;;;;;;;14.28;100.00;101348.05;256559;1100;115155;-70
2021/06/04 05:03:19;;;;;;;19.25;16.90;;;;;;;14.35;100.00;101332.59;256721;1104;115470;-67
2021/06/04 05:08:21;;;;;;;18.78;16.75;;;;;;;14.49;100.00;101332.89;256413;1098;115340;-69
2021/06/04 05:13:23;;;;;;;19.08;15.30;;;;;;;14.56;100.00;101335.32;256556;1105;115067;-67
2021/06/04 05:18:26;;;;;;;17.18;13.83;;;;;;;14.66;100.00;101334.91;256303;1104;115483;-70
2021/06/04 05:23:29;;;;;;;16.23;13.83;;;;;;;14.93;100.00;101341.85;256742;1104;114862;-73
2021/06/04 05:28:31;;;;;;;14.55;12.30;;;;;;;15.17;100.00;101339.02;256810;1099;114758;-69
2021/06/04 05:33:37;;;;;;;15.87;12.27;;;;;;;15.36;100.00;101339.96;256366;1104;115306;-69
2021/06/04 05:38:39;;;;;;;14.10;12.60;;;;;;;15.44;100.00;101337.77;256320;1105;115656;-68
2021/06/04 05:43:44;;;;;;;12.98;11.35;;;;;;;15.59;100.00;101338.02;256918;1100;114973;-70
2021/06/04 05:48:50;;;;;;;13.20;10.55;;;;;;;15.63;100.00;101339.64;256739;1104;114816;-69
2021/06/04 05:53:53;;;;;;;12.38;10.15;;;;;;;15.65;100.00;101339.55;256348;1104;115291;-70
2021/06/04 05:58:56;;;;;;;9.85;8.93;;;;;;;15.78;100.00;101341.62;256735;1100;115046;-68
2021/06/04 06:03:59;;;;;;;10.35;9.08;;;;;;;15.90;100.00;101342.00;256336;1100;114696;-69
2021/06/04 06:09:03;;;;;;;9.93;8.93;;;;;;;16.12;100.00;101346.36;256474;1104;115331;-71
2021/06/04 06:14:07;;;;;;;10.23;8.63;;;;;;;16.13;100.00;101351.66;257493;1104;114675;-68
2021/06/04 06:19:12;;;;;;;8.50;7.60;;;;;;;16.27;100.00;101348.31;256777;1104;114740;-69
2021/06/04 06:24:18;;;;;;;8.65;7.63;;;;;;;16.50;100.00;101348.97;256839;1099;116716;-71
2021/06/04 06:29:20;;;;;;;7.47;6.33;;;;;;;16.47;100.00;101351.83;256967;1104;114481;-70
2021/06/04 06:34:24;;;;;;;8.13;6.25;;;;;;;16.53;100.00;101349.69;256481;1104;114685;-70
2021/06/04 06:39:33;;;;;;;6.77;6.10;;;;;;;16.59;100.00;101358.43;257004;1099;114625;-69
2021/06/04 06:44:35;;;;;;;10.13;6.03;;;;;;;16.83;100.00;101356.31;256704;1098;115198;-72
2021/06/04 06:49:37;;;;;;;7.43;6.63;;;;;;;17.04;100.00;101352.55;256370;1104;115098;-71
2021/06/04 06:54:41;;;;;;;7.93;6.23;;;;;;;17.11;100.00;101357.62;256493;1104;114952;-71
2021/06/04 06:59:46;;;;;;;7.23;5.48;;;;;;;17.33;100.00;101355.55;256363;1099;114903;-69
2021/06/04 07:04:49;;;;;;;5.87;5.13;;;;;;;17.66;98.51;101357.36;256849;1100;115003;-70
2021/06/04 07:09:57;;;;;;;5.05;4.55;;;;;;;17.90;95.33;101356.94;256458;1104;114438;-73
2021/06/04 07:15:00;;;;;;;7.90;4.17;;;;;;;18.14;88.97;101361.96;256661;1104;115040;-69
2021/06/04 07:20:06;;;;;;;7.55;2.98;;;;;;;18.30;83.42;101360.14;259834;1104;114516;-74
2021/06/04 07:25:14;;;;;;;7.10;3.10;;;;;;;18.55;82.82;101361.41;258561;1099;114758;-74
2021/06/04 07:30:27;;;;;;;4.50;3.03;;;;;;;18.55;82.59;101369.51;257482;1100;114631;-69
2021/06/04 07:35:33;;;;;;;3.45;3.15;;;;;;;18.58;80.86;101361.24;256564;1104;114687;-72
2021/06/04 07:40:37;;;;;;;6.03;5.33;;;;;;;18.83;82.81;101364.32;256108;1104;114402;-61
2021/06/04 07:45:45;;;;;;;5.38;3.50;;;;;;;18.90;75.42;101373.80;256184;1104;114942;-70
2021/06/04 07:50:50;;;;;;;3.70;2.40;;;;;;;19.04;69.82;101368.47;256551;1096;114514;-70
2021/06/04 07:55:53;;;;;;;3.23;2.43;;;;;;;19.09;66.30;101362.80;256374;1100;114650;-70
2021/06/04 08:00:56;;;;;;;4.63;4.23;;;;;;;19.21;66.98;101359.34;256403;1100;114416;-70
2021/06/04 08:06:00;;;;;;;5.70;5.20;;;;;;;19.47;65.70;101355.99;256476;1099;114717;-71
2021/06/04 08:11:06;;;;;;;6.17;3.77;;;;;;;19.62;61.33;101362.27;256408;1100;114400;-69
2021/06/04 08:16:12;;;;;;;4.80;3.00;;;;;;;19.76;60.26;101348.73;256148;1104;114449;-69
2021/06/04 08:21:23;;;;;;;3.48;2.88;;;;;;;19.70;63.97;101343.72;256059;1104;114553;-69
2021/06/04 08:26:31;;;;;;;4.48;3.38;;;;;;;20.01;63.86;101345.36;256118;1100;114712;-70
2021/06/04 08:31:33;;;;;;;2.83;2.63;;;;;;;19.99;62.42;101343.73;256256;1099;114849;-71
2021/06/04 08:36:38;;;;;;;2.80;2.48;;;;;;;20.09;57.77;101334.02;256403;1104;114993;-69
2021/06/04 08:42:01;;;;;;;3.03;2.18;;;;;;;20.33;58.93;101327.97;257733;1096;114484;-71
2021/06/04 08:47:10;;;;;;;48.03;8.05;;;;;;;20.55;56.66;101327.39;257515;1100;115060;-72
2021/06/04 08:52:50;;;;;;;5.23;2.45;;;;;;;20.29;55.15;101326.45;256423;1104;115078;-71
2021/06/04 08:58:14;;;;;;;5.43;2.70;;;;;;;20.13;55.04;101311.22;256281;1098;119216;-74
2021/06/04 09:03:31;;;;;;;12.20;6.45;;;;;;;20.50;55.94;101319.60;256751;1104;114473;-72
2021/06/04 09:08:36;;;;;;;24.63;7.55;;;;;;;20.13;55.08;101319.34;256486;1104;114881;-72
2021/06/04 09:13:40;;;;;;;5.10;4.70;;;;;;;20.36;52.90;101315.09;257519;1104;114404;-74
2021/06/04 09:19:05;;;;;;;7.33;3.15;;;;;;;21.05;56.89;101305.97;256231;1099;114476;-71
2021/06/04 09:24:15;;;;;;;3.08;2.88;;;;;;;21.22;52.00;101309.31;256570;1099;115532;-75
2021/06/04 09:29:27;;;;;;;7.58;3.85;;;;;;;21.36;47.09;101302.93;256352;1098;114829;-71
2021/06/04 09:34:34;;;;;;;6.25;4.18;;;;;;;21.48;45.39;101302.93;256361;1100;114763;-71
2021/06/04 09:39:48;;;;;;;4.90;4.38;;;;;;;21.57;44.29;101296.00;256879;1100;114484;-72
2021/06/04 09:45:01;;;;;;;5.47;2.83;;;;;;;21.68;46.80;101289.80;256373;1099;114794;-76
2021/06/04 09:50:14;;;;;;;4.23;3.37;;;;;;;21.77;42.94;101280.98;256412;1100;114563;-72
2021/06/04 09:55:30;;;;;;;5.00;3.08;;;;;;;21.53;42.66;101288.16;256493;1099;114354;-73
2021/06/04 10:00:38;;;;;;;2.90;2.60;;;;;;;21.90;43.50;101278.21;256835;1104;114878;-72
2021/06/04 10:05:42;;;;;;;4.88;2.70;;;;;;;22.01;41.71;101285.56;256793;1098;114845;-72
2021/06/04 10:10:45;;;;;;;6.13;2.85;;;;;;;22.18;41.29;101283.44;256337;1104;114953;-73
2021/06/04 10:15:50;;;;;;;4.23;2.48;;;;;;;22.49;40.49;101282.02;256802;1104;114271;-73
2021/06/04 10:21:26;;;;;;;11.58;3.35;;;;;;;22.50;38.60;101277.43;256440;1104;114434;-75
2021/06/04 10:26:28;;;;;;;3.58;2.20;;;;;;;22.70;37.81;101284.06;256079;1104;114990;-71
2021/06/04 10:31:52;;;;;;;3.73;2.43;;;;;;;22.72;37.00;101273.95;256103;1104;114625;-73
2021/06/04 10:36:57;;;;;;;2.63;2.40;;;;;;;22.98;36.89;101263.72;256520;1098;114776;-73
2021/06/04 10:42:25;;;;;;;2.65;2.45;;;;;;;23.28;35.90;101261.45;256326;1104;114435;-72
2021/06/04 10:47:45;;;;;;;5.10;3.88;;;;;;;23.39;36.31;101265.05;255986;1100;114374;-73
2021/06/04 10:52:59;;;;;;;6.40;2.78;;;;;;;23.49;36.31;101253.40;256508;1104;114814;-74
2021/06/04 10:58:55;;;;;;;3.05;2.80;;;;;;;23.81;36.35;101247.19;257423;1091;103158;-74
2021/06/04 11:04:06;;;;;;;3.70;2.75;;;;;;;23.81;36.19;101239.87;256689;1104;114104;-73
2021/06/04 11:09:23;;;;;;;15.73;3.35;;;;;;;24.43;36.62;101242.89;256724;1104;113853;-71
2021/06/04 11:14:44;;;;;;;2.75;2.53;;;;;;;24.33;36.58;101236.52;256897;1100;114068;-66
2021/06/04 11:19:54;;;;;;;4.15;2.43;;;;;;;24.80;36.22;101233.45;256585;1098;113890;-73
2021/06/04 11:25:16;;;;;;;2.80;2.48;;;;;;;25.38;35.08;101223.83;256462;1100;113910;-74
2021/06/04 11:30:26;;;;;;;5.40;3.53;;;;;;;25.64;36.47;101232.39;256481;1099;113942;-71
2021/06/04 11:35:32;;;;;;;2.93;2.63;;;;;;;25.49;31.74;101229.20;256429;1104;114486;-72
2021/06/04 11:40:44;;;;;;;7.53;2.85;;;;;;;25.13;33.57;101226.86;257169;1097;118809;-74
2021/06/04 11:45:48;;;;;;;2.60;2.50;;;;;;;24.02;33.98;101223.64;256030;1104;113926;-74
2021/06/04 11:51:19;;;;;;;4.65;3.25;;;;;;;23.84;36.03;101215.13;256887;1099;114551;-73
2021/06/04 11:56:41;;;;;;;2.40;2.20;;;;;;;23.84;34.65;101222.41;257006;1099;114036;-72
2021/06/04 12:02:05;;;;;;;4.67;3.10;;;;;;;24.02;36.27;101212.75;258722;1104;114075;-72
2021/06/04 12:07:42;;;;;;;2.33;1.75;;;;;;;23.68;32.74;101201.91;256593;1104;114147;-70
2021/06/04 12:12:57;;;;;;;4.90;2.53;;;;;;;23.41;34.34;101202.34;256088;1104;114350;-72
2021/06/04 12:18:30;;;;;;;4.30;1.90;;;;;;;23.14;34.99;101194.53;256354;1104;114080;-71
2021/06/04 12:24:00;;;;;;;2.98;2.43;;;;;;;23.08;35.29;101185.03;256890;1104;114955;-73
2021/06/04 12:29:23;;;;;;;2.73;2.38;;;;;;;23.21;36.66;101174.05;256512;1100;114677;-71
2021/06/04 12:34:48;;;;;;;2.53;2.30;;;;;;;23.05;37.02;101177.11;259186;1104;114223;-73
2021/06/04 12:39:54;;;;;;;3.75;3.00;;;;;;;23.13;37.49;101176.48;257851;1100;114451;-72
2021/06/04 12:45:04;;;;;;;4.73;2.50;;;;;;;23.42;34.40;101181.44;258043;1104;114380;-71
2021/06/04 12:50:21;;;;;;;3.70;2.40;;;;;;;23.40;34.59;101168.81;257585;1099;114136;-72
2021/06/04 12:55:29;;;;;;;2.63;2.43;;;;;;;23.53;35.90;101168.68;257140;1104;114123;-71
2021/06/04 13:00:33;;;;;;;2.80;2.50;;;;;;;23.95;35.63;101153.48;256862;1096;113993;-72
2021/06/04 13:05:36;;;;;;;2.88;2.55;;;;;;;24.10;35.23;101156.77;256345;1104;114253;-71
2021/06/04 13:10:58;;;;;;;2.63;2.43;;;;;;;24.25;33.64;101157.30;256498;1104;115028;-72
2021/06/04 13:16:23;;;;;;;3.27;2.10;;;;;;;24.22;33.75;101152.98;256010;1104;114192;-71
2021/06/04 13:21:37;;;;;;;4.15;2.48;;;;;;;24.41;32.93;101143.22;256262;1104;114538;-71
2021/06/04 13:26:41;;;;;;;2.53;2.30;;;;;;;24.16;35.46;101148.08;256672;1104;115188;-74
2021/06/04 13:31:44;;;;;;;3.15;2.85;;;;;;;24.34;33.46;101132.00;257648;1104;114440;-73
2021/06/04 13:36:47;;;;;;;4.33;3.50;;;;;;;24.40;32.91;101134.19;256739;1096;114274;-71
2021/06/04 13:42:03;;;;;;;2.83;2.60;;;;;;;24.80;35.04;101141.60;256597;1097;114112;-71
2021/06/04 13:48:02;;;;;;;3.95;2.40;;;;;;;24.91;33.50;101126.16;256692;1096;114039;-71
2021/06/04 13:53:10;;;;;;;2.90;2.30;;;;;;;24.89;33.75;101126.28;256173;1104;113901;-73
2021/06/04 13:58:24;;;;;;;2.60;2.40;;;;;;;24.66;34.88;101134.66;256377;1104;114423;-70
2021/06/04 14:03:31;;;;;;;2.75;2.55;;;;;;;24.91;32.98;101126.16;256416;1096;114835;-72
2021/06/04 14:08:33;;;;;;;3.00;2.70;;;;;;;25.02;31.47;101125.20;256598;1096;114457;-70
2021/06/04 14:13:57;;;;;;;3.15;2.83;;;;;;;25.14;33.61;101116.75;256112;1096;113997;-71
2021/06/04 14:19:00;;;;;;;3.80;2.33;;;;;;;25.23;33.21;101120.50;256278;1096;114692;-73
2021/06/04 14:24:11;;;;;;;3.38;2.60;;;;;;;25.30;31.88;101124.39;257180;1096;114509;-72
2021/06/04 14:29:16;;;;;;;2.77;2.57;;;;;;;25.18;31.30;101113.76;256461;1096;114905;-70
2021/06/04 14:34:22;;;;;;;4.53;2.40;;;;;;;24.58;33.31;101111.75;256926;1104;114322;-71
2021/06/04 14:39:45;;;;;;;2.75;2.55;;;;;;;24.29;32.69;101110.60;257306;1104;114223;-72
2021/06/04 14:44:49;;;;;;;4.55;2.30;;;;;;;24.08;33.78;101109.73;257014;1104;119241;-73
2021/06/04 14:49:53;;;;;;;2.60;2.27;;;;;;;23.90;33.04;101103.98;256333;1100;114427;-74
2021/06/04 14:54:56;;;;;;;2.50;2.30;;;;;;;23.60;32.85;101098.30;256778;1096;114052;-76
2021/06/04 15:00:03;;;;;;;3.10;2.28;;;;;;;23.69;34.25;101097.50;256397;1104;114407;-73
2021/06/04 15:05:14;;;;;;;2.90;2.38;;;;;;;23.63;33.55;101092.58;256931;1096;114106;-72
2021/06/04 15:10:17;;;;;;;3.68;2.10;;;;;;;23.49;33.10;101085.59;255992;1096;114414;-72
2021/06/04 15:15:29;;;;;;;4.48;2.50;;;;;;;23.66;32.67;101081.45;256309;1100;114279;-72
2021/06/04 15:20:35;;;;;;;3.90;2.73;;;;;;;23.83;32.79;101077.28;256541;1096;114576;-72
2021/06/04 15:25:40;;;;;;;3.15;2.85;;;;;;;24.38;30.23;101069.94;256894;1104;114562;-74
2021/06/04 15:30:44;;;;;;;3.43;2.77;;;;;;;24.95;32.22;101067.61;256636;1094;114074;-75
2021/06/04 15:35:46;;;;;;;5.17;2.33;;;;;;;25.19;32.76;101064.51;256037;1097;117873;-71
2021/06/04 15:40:49;;;;;;;5.87;3.20;;;;;;;25.42;33.31;101053.38;256277;1104;114500;-73
2021/06/04 15:45:53;;;;;;;2.68;2.45;;;;;;;25.72;30.73;101056.98;256491;1097;114514;-72
2021/06/04 15:50:57;;;;;;;3.40;2.20;;;;;;;25.50;31.00;101050.80;256329;1104;114209;-76
2021/06/04 15:56:00;;;;;;;3.67;3.00;;;;;;;25.30;32.11;101050.73;257000;1096;114255;-71
2021/06/04 16:01:02;;;;;;;3.43;2.48;;;;;;;25.14;32.67;101053.16;256700;1096;114245;-73
2021/06/04 16:06:09;;;;;;;3.57;2.70;;;;;;;25.09;32.08;101047.28;256046;1098;114578;-73
2021/06/04 16:11:12;;;;;;;3.78;3.13;;;;;;;24.72;33.66;101051.46;256507;1104;114273;-71
2021/06/04 16:16:17;;;;;;;3.83;3.48;;;;;;;24.37;36.31;101039.09;256141;1099;114088;-71
2021/06/04 16:21:19;;;;;;;3.55;3.08;;;;;;;24.04;35.28;101043.79;256832;1104;113973;-71
2021/06/04 16:26:25;;;;;;;5.03;2.95;;;;;;;23.86;35.85;101038.89;257717;1098;114144;-71
2021/06/04 16:31:51;;;;;;;4.08;3.15;;;;;;;23.74;37.79;101034.52;256709;1099;114132;-69
2021/06/04 16:36:57;;;;;;;2.88;2.53;;;;;;;23.60;36.41;101030.27;256345;1100;114527;-74
2021/06/04 16:42:00;;;;;;;2.88;2.68;;;;;;;23.52;37.20;101030.05;256864;1104;114459;-74
2021/06/04 16:47:03;;;;;;;4.43;2.75;;;;;;;23.51;36.94;101022.88;256267;1097;114429;-71
2021/06/04 16:52:06;;;;;;;5.88;3.68;;;;;;;23.58;34.83;101021.36;257099;1099;114471;-70
2021/06/04 16:57:09;;;;;;;4.28;2.88;;;;;;;23.38;34.71;101023.93;256277;1098;114181;-70
2021/06/04 17:02:41;;;;;;;2.98;2.48;;;;;;;23.23;35.95;101020.63;257344;1092;104315;-72
2021/06/04 17:07:44;;;;;;;4.98;2.58;;;;;;;23.05;36.38;101006.68;256402;1092;115202;-72
2021/06/04 17:12:46;;;;;;;3.43;2.60;;;;;;;23.00;36.40;101014.36;259594;1093;114290;-71
2021/06/04 17:17:49;;;;;;;4.43;2.87;;;;;;;22.91;36.94;101020.55;256316;1093;114141;-71
2021/06/04 17:22:52;;;;;;;3.93;2.38;;;;;;;22.82;37.31;101032.20;256432;1091;114392;-73
2021/06/04 17:27:56;;;;;;;4.70;2.60;;;;;;;22.77;37.79;101029.86;256446;1093;115200;-74
2021/06/04 17:32:58;;;;;;;;;;;;;;;22.68;38.87;101028.77;256675;1093;114361;-72
2021/06/04 17:38:01;;;;;;;8.23;2.88;;;;;;;22.58;41.88;101019.61;256600;1093;103010;-71
2021/06/04 17:43:04;;;;;;;7.18;3.30;;;;;;;22.42;42.77;101020.84;256743;1093;114191;-72
2021/06/04 17:48:10;;;;;;;8.35;4.15;;;;;;;22.33;44.84;101024.30;256369;1092;114270;-72
2021/06/04 17:53:16;;;;;;;6.90;3.98;;;;;;;22.23;46.53;101021.45;256593;1093;114508;-72
2021/06/04 17:58:25;;;;;;;3.80;2.90;;;;;;;22.07;45.46;101027.20;257545;1091;114318;-73
2021/06/04 18:03:30;;;;;;;5.88;3.80;;;;;;;21.97;45.85;101029.78;257006;1093;114552;-73
2021/06/04 18:08:36;;;;;;;8.23;3.20;;;;;;;21.98;43.30;101022.52;256608;1093;114687;-72
2021/06/04 18:13:39;;;;;;;10.58;4.13;;;;;;;21.95;46.93;101022.75;256239;1092;114960;-74
2021/06/04 18:18:42;;;;;;;7.15;3.58;;;;;;;21.90;48.01;101027.68;256646;1093;114833;-71
2021/06/04 18:23:50;;;;;;;5.38;2.90;;;;;;;21.86;47.51;101023.45;256223;1093;114275;-72
2021/06/04 18:28:52;;;;;;;9.98;3.78;;;;;;;21.81;48.06;101019.27;256686;1093;114499;-73
2021/06/04 18:33:55;;;;;;;5.70;3.75;;;;;;;21.78;49.40;101015.92;256369;1092;114220;-72
2021/06/04 18:38:58;;;;;;;6.95;3.83;;;;;;;21.68;50.11;101018.48;257379;1093;114675;-72
2021/06/04 18:44:00;;;;;;;6.13;3.58;;;;;;;21.59;50.74;101017.36;259168;1093;113949;-73
2021/06/04 18:49:03;;;;;;;6.70;3.65;;;;;;;21.42;52.61;101018.63;256668;1092;114719;-73
2021/06/04 18:54:05;;;;;;;7.90;4.90;;;;;;;21.30;53.54;101022.23;257146;1093;114300;-73
2021/06/04 18:59:07;;;;;;;8.33;5.45;;;;;;;21.10;52.34;101015.63;256261;1093;114510;-72
2021/06/04 19:04:10;;;;;;;6.95;5.55;;;;;;;20.96;50.23;101024.77;256441;1093;114841;-71
2021/06/04 19:09:12;;;;;;;4.68;3.55;;;;;;;21.33;42.59;101019.30;256434;1093;114388;-73
2021/06/04 19:14:17;;;;;;;5.28;4.78;;;;;;;21.48;47.96;101019.97;256741;1092;114810;-72
2021/06/04 19:19:19;;;;;;;9.85;5.00;;;;;;;21.34;49.33;101026.47;256463;1092;114635;-74
2021/06/04 19:24:21;;;;;;;8.77;4.97;;;;;;;21.23;49.58;101020.97;256487;1093;114238;-76
2021/06/04 19:29:24;;;;;;;9.88;5.98;;;;;;;21.16;49.80;101020.58;256259;1093;115515;-72
2021/06/04 19:34:26;;;;;;;12.80;6.40;;;;;;;21.01;52.99;101018.03;256318;1093;114476;-73
2021/06/04 19:39:28;;;;;;;13.58;6.18;;;;;;;20.61;56.33;101018.23;256965;1093;114557;-74
2021/06/04 19:44:31;;;;;;;8.30;5.65;;;;;;;20.78;56.15;101022.45;257651;1092;114701;-74
2021/06/04 19:49:33;;;;;;;10.73;6.90;;;;;;;20.75;57.46;101017.24;258094;1093;114261;-74
2021/06/04 19:54:37;;;;;;;7.55;6.30;;;;;;;20.65;58.10;101022.44;257068;1093;114438;-73
2021/06/04 19:59:39;;;;;;;9.93;5.78;;;;;;;20.47;59.03;101012.95;256527;1093;114401;-72
2021/06/04 20:04:42;;;;;;;8.70;5.75;;;;;;;20.48;60.08;101020.95;257106;1092;114528;-74
2021/06/04 20:09:47;;;;;;;7.10;6.40;;;;;;;20.38;59.91;101022.57;256764;1093;114271;-74
2021/06/04 20:14:50;;;;;;;8.45;6.65;;;;;;;20.51;57.43;101011.73;256715;1092;114253;-74
2021/06/04 20:19:52;;;;;;;7.15;6.20;;;;;;;20.57;60.27;101010.44;256775;1093;114267;-73
2021/06/04 20:24:55;;;;;;;10.43;7.20;;;;;;;20.51;61.09;101014.44;256944;1093;115701;-73
2021/06/04 20:29:57;;;;;;;12.18;6.28;;;;;;;20.50;59.12;101007.29;256611;1092;114447;-74
2021/06/04 20:35:00;;;;;;;9.60;8.20;;;;;;;20.55;58.82;101005.11;256674;1092;114970;-74
2021/06/04 20:40:05;;;;;;;10.83;8.18;;;;;;;20.44;61.83;101003.17;256475;1092;114291;-72
2021/06/04 20:45:17;;;;;;;12.28;7.88;;;;;;;20.16;64.16;101007.00;256938;1093;114852;-74
2021/06/04 20:50:21;;;;;;;9.63;7.60;;;;;;;19.95;63.78;101001.25;256742;1093;114744;-72
2021/06/04 20:55:25;;;;;;;12.33;8.03;;;;;;;19.77;66.31;101001.55;256235;1092;114383;-74
2021/06/04 21:00:27;;;;;;;8.83;7.50;;;;;;;19.67;67.90;101009.42;256619;1093;114693;-73
2021/06/04 21:05:33;;;;;;;12.80;8.65;;;;;;;19.63;69.37;101005.19;256320;1093;114607;-76
2021/06/04 21:10:36;;;;;;;9.48;8.58;;;;;;;19.50;70.70;101006.99;256455;1093;114379;-71
2021/06/04 21:15:41;;;;;;;12.13;8.95;;;;;;;19.54;70.35;101006.69;256198;1091;114422;-71
2021/06/04 21:20:46;;;;;;;16.23;10.00;;;;;;;19.37;71.79;101001.58;256469;1091;114457;-72
2021/06/04 21:25:49;;;;;;;;;;;;;;;19.22;71.42;100993.53;257189;1093;114812;-74
2021/06/04 21:30:51;;;;;;;10.60;9.50;;;;;;;19.07;70.40;100997.25;256227;1093;103441;-73
2021/06/04 21:35:54;;;;;;;10.15;9.00;;;;;;;19.32;67.02;100993.77;255987;1092;114840;-73
2021/06/04 21:40:57;;;;;;;10.60;9.07;;;;;;;19.15;69.79;100988.62;255962;1092;114964;-74
2021/06/04 21:46:00;;;;;;;15.48;10.08;;;;;;;19.21;70.03;100997.19;256141;1092;114527;-73
2021/06/04 21:51:04;;;;;;;10.00;8.45;;;;;;;19.23;69.07;100983.57;256346;1092;114775;-72
2021/06/04 21:56:07;;;;;;;9.05;8.00;;;;;;;19.20;68.46;100986.50;256313;1093;115088;-71
2021/06/04 22:01:10;;;;;;;10.10;8.35;;;;;;;19.14;69.02;100986.88;256857;1092;114338;-72
2021/06/04 22:06:16;;;;;;;9.25;8.18;;;;;;;19.01;68.76;100985.00;259159;1093;114666;-74
2021/06/04 22:11:21;;;;;;;7.25;6.65;;;;;;;19.09;68.95;100988.06;257028;1093;114563;-71
2021/06/04 22:16:24;;;;;;;10.13;7.93;;;;;;;19.07;64.89;100972.93;256619;1092;114356;-73
2021/06/04 22:21:29;;;;;;;8.15;7.10;;;;;;;19.03;67.80;100966.86;256775;1092;114711;-72
2021/06/04 22:26:32;;;;;;;8.10;7.35;;;;;;;18.83;68.60;100976.23;256706;1092;114537;-73
2021/06/04 22:31:39;;;;;;;7.77;7.07;;;;;;;18.85;62.33;100971.62;255979;1092;114760;-73
2021/06/04 22:36:44;;;;;;;6.10;5.47;;;;;;;19.08;55.97;100974.67;256240;1093;114446;-73
2021/06/04 22:41:48;;;;;;;5.28;4.75;;;;;;;19.18;54.72;100969.51;256465;1093;114797;-71
2021/06/04 22:46:50;;;;;;;5.07;4.63;;;;;;;19.27;53.38;100969.75;255963;1093;114554;-72
2021/06/04 22:51:53;;;;;;;5.87;5.23;;;;;;;19.28;53.92;100965.20;256181;1093;114467;-71
2021/06/04 22:56:55;;;;;;;6.23;5.63;;;;;;;19.14;54.24;100951.75;256075;1093;114284;-72
2021/06/04 23:01:57;;;;;;;5.18;4.73;;;;;;;19.17;55.05;100951.56;256283;1093;114295;-70
2021/06/04 23:07:00;;;;;;;6.08;5.45;;;;;;;18.84;61.07;100950.97;256601;1092;114590;-70
2021/06/04 23:12:05;;;;;;;7.38;6.68;;;;;;;18.81;63.39;100953.89;256234;1093;114773;-70